sensor_id;sensor_type;location;lat;lon;timestamp;P1;durP1;ratioP1;P2;durP2;ratioP2
9438;SDS011;5176;42.622;25.386;2022-07-22T00:01:35;21.77;;;13.73;;
9438;SDS011;5176;42.622;25.386;2022-07-22T00:04:02;22.20;;;14.20;;
9438;SDS011;5176;42.622;25.386;2022-07-22T00:06:30;21.48;;;14.10;;
9438;SDS011;5176;42.622;25.386;2022-07-22T00:08:57;17.83;;;13.55;;
9438;SDS011;5176;42.622;25.386;2022-07-22T00:11:25;21.60;;;14.27;;
9438;SDS011;5176;42.622;25.386;2022-07-22T00:13:52;23.27;;;14.70;;
9438;SDS011;5176;42.622;25.386;2022-07-22T00:16:19;20.33;;;14.15;;
9438;SDS011;5176;42.622;25.386;2022-07-22T00:18:45;19.80;;;12.73;;
9438;SDS011;5176;42.622;25.386;2022-07-22T00:21:12;16.38;;;12.90;;
9438;SDS011;5176;42.622;25.386;2022-07-22T00:23:39;19.30;;;13.35;;
9438;SDS011;5176;42.622;25.386;2022-07-22T00:26:06;15.30;;;12.30;;
9438;SDS011;5176;42.622;25.386;2022-07-22T00:28:34;14.50;;;10.38;;
9438;SDS011;5176;42.622;25.386;2022-07-22T00:31:01;13.68;;;9.55;;
9438;SDS011;5176;42.622;25.386;2022-07-22T00:33:28;13.02;;;10.55;;
9438;SDS011;5176;42.622;25.386;2022-07-22T00:35:55;11.73;;;9.70;;
9438;SDS011;5176;42.622;25.386;2022-07-22T00:38:22;9.93;;;8.93;;
9438;SDS011;5176;42.622;25.386;2022-07-22T00:40:49;11.45;;;8.10;;
9438;SDS011;5176;42.622;25.386;2022-07-22T00:43:16;9.18;;;7.40;;
9438;SDS011;5176;42.622;25.386;2022-07-22T00:45:44;10.27;;;8.15;;
9438;SDS011;5176;42.622;25.386;2022-07-22T00:48:11;10.10;;;7.82;;
9438;SDS011;5176;42.622;25.386;2022-07-22T00:50:38;10.73;;;8.05;;
9438;SDS011;5176;42.622;25.386;2022-07-22T00:53:05;9.60;;;8.70;;
9438;SDS011;5176;42.622;25.386;2022-07-22T00:55:33;15.77;;;9.30;;
9438;SDS011;5176;42.622;25.386;2022-07-22T00:58:00;13.65;;;9.27;;
9438;SDS011;5176;42.622;25.386;2022-07-22T01:00:27;9.82;;;8.65;;
9438;SDS011;5176;42.622;25.386;2022-07-22T01:02:56;9.85;;;8.38;;
9438;SDS011;5176;42.622;25.386;2022-07-22T01:05:22;9.25;;;8.15;;
9438;SDS011;5176;42.622;25.386;2022-07-22T01:07:49;12.10;;;8.60;;
9438;SDS011;5176;42.622;25.386;2022-07-22T01:10:16;10.38;;;9.25;;
9438;SDS011;5176;42.622;25.386;2022-07-22T01:12:43;13.43;;;10.75;;
9438;SDS011;5176;42.622;25.386;2022-07-22T01:15:10;14.73;;;12.25;;
9438;SDS011;5176;42.622;25.386;2022-07-22T01:17:37;14.93;;;11.32;;
9438;SDS011;5176;42.622;25.386;2022-07-22T01:20:05;18.30;;;11.98;;
9438;SDS011;5176;42.622;25.386;2022-07-22T01:22:33;17.25;;;12.20;;
9438;SDS011;5176;42.622;25.386;2022-07-22T01:25:00;18.35;;;11.70;;
9438;SDS011;5176;42.622;25.386;2022-07-22T01:27:27;15.70;;;10.75;;
9438;SDS011;5176;42.622;25.386;2022-07-22T01:29:54;13.32;;;9.90;;
9438;SDS011;5176;42.622;25.386;2022-07-22T01:32:21;11.52;;;8.80;;
9438;SDS011;5176;42.622;25.386;2022-07-22T01:34:48;10.85;;;9.70;;
9438;SDS011;5176;42.622;25.386;2022-07-22T01:37:16;8.93;;;8.00;;
9438;SDS011;5176;42.622;25.386;2022-07-22T01:39:43;12.02;;;7.82;;
9438;SDS011;5176;42.622;25.386;2022-07-22T01:42:10;11.32;;;7.93;;
9438;SDS011;5176;42.622;25.386;2022-07-22T01:44:37;9.35;;;8.20;;
9438;SDS011;5176;42.622;25.386;2022-07-22T01:47:04;9.18;;;8.10;;
9438;SDS011;5176;42.622;25.386;2022-07-22T01:49:31;11.60;;;8.40;;
9438;SDS011;5176;42.622;25.386;2022-07-22T01:51:58;10.20;;;8.15;;
9438;SDS011;5176;42.622;25.386;2022-07-22T01:54:26;11.10;;;7.85;;
9438;SDS011;5176;42.622;25.386;2022-07-22T01:56:53;10.82;;;8.85;;
9438;SDS011;5176;42.622;25.386;2022-07-22T01:59:20;10.00;;;9.20;;
9438;SDS011;5176;42.622;25.386;2022-07-22T02:01:47;10.30;;;9.07;;
9438;SDS011;5176;42.622;25.386;2022-07-22T02:04:14;9.65;;;8.85;;
9438;SDS011;5176;42.622;25.386;2022-07-22T02:06:41;10.40;;;9.40;;
9438;SDS011;5176;42.622;25.386;2022-07-22T02:09:08;11.32;;;10.25;;
9438;SDS011;5176;42.622;25.386;2022-07-22T02:11:36;15.32;;;10.13;;
9438;SDS011;5176;42.622;25.386;2022-07-22T02:14:03;12.02;;;10.93;;
9438;SDS011;5176;42.622;25.386;2022-07-22T02:16:30;17.80;;;12.73;;
9438;SDS011;5176;42.622;25.386;2022-07-22T02:18:57;17.83;;;13.57;;
9438;SDS011;5176;42.622;25.386;2022-07-22T02:21:24;17.02;;;14.25;;
9438;SDS011;5176;42.622;25.386;2022-07-22T02:23:51;20.88;;;15.73;;
9438;SDS011;5176;42.622;25.386;2022-07-22T02:26:17;24.15;;;17.02;;
9438;SDS011;5176;42.622;25.386;2022-07-22T02:28:45;24.10;;;17.48;;
9438;SDS011;5176;42.622;25.386;2022-07-22T02:31:12;24.77;;;17.73;;
9438;SDS011;5176;42.622;25.386;2022-07-22T02:33:39;20.65;;;17.33;;
9438;SDS011;5176;42.622;25.386;2022-07-22T02:36:06;19.85;;;15.52;;
9438;SDS011;5176;42.622;25.386;2022-07-22T02:38:34;21.17;;;15.63;;
9438;SDS011;5176;42.622;25.386;2022-07-22T02:41:00;21.08;;;15.48;;
9438;SDS011;5176;42.622;25.386;2022-07-22T02:43:27;18.63;;;14.07;;
9438;SDS011;5176;42.622;25.386;2022-07-22T02:45:55;13.73;;;11.98;;
9438;SDS011;5176;42.622;25.386;2022-07-22T02:48:22;13.57;;;11.07;;
9438;SDS011;5176;42.622;25.386;2022-07-22T02:50:49;12.38;;;10.57;;
9438;SDS011;5176;42.622;25.386;2022-07-22T02:53:16;10.32;;;9.20;;
9438;SDS011;5176;42.622;25.386;2022-07-22T02:55:43;12.43;;;10.25;;
9438;SDS011;5176;42.622;25.386;2022-07-22T02:58:10;9.95;;;8.95;;
9438;SDS011;5176;42.622;25.386;2022-07-22T03:00:37;10.05;;;8.65;;
9438;SDS011;5176;42.622;25.386;2022-07-22T03:03:05;11.43;;;8.68;;
9438;SDS011;5176;42.622;25.386;2022-07-22T03:05:32;10.10;;;9.18;;
9438;SDS011;5176;42.622;25.386;2022-07-22T03:07:59;11.80;;;9.15;;
9438;SDS011;5176;42.622;25.386;2022-07-22T03:10:26;10.27;;;9.02;;
9438;SDS011;5176;42.622;25.386;2022-07-22T03:12:53;10.18;;;9.18;;
9438;SDS011;5176;42.622;25.386;2022-07-22T03:15:20;12.23;;;9.43;;
9438;SDS011;5176;42.622;25.386;2022-07-22T03:17:47;10.63;;;9.43;;
9438;SDS011;5176;42.622;25.386;2022-07-22T03:20:15;10.15;;;9.10;;
9438;SDS011;5176;42.622;25.386;2022-07-22T03:22:42;10.77;;;9.68;;
9438;SDS011;5176;42.622;25.386;2022-07-22T03:25:08;11.57;;;10.25;;
9438;SDS011;5176;42.622;25.386;2022-07-22T03:27:36;25.23;;;12.00;;
9438;SDS011;5176;42.622;25.386;2022-07-22T03:30:03;12.45;;;10.95;;
9438;SDS011;5176;42.622;25.386;2022-07-22T03:32:31;12.40;;;10.13;;
9438;SDS011;5176;42.622;25.386;2022-07-22T03:34:57;15.82;;;10.48;;
9438;SDS011;5176;42.622;25.386;2022-07-22T03:37:26;15.45;;;10.80;;
9438;SDS011;5176;42.622;25.386;2022-07-22T03:39:52;11.45;;;10.25;;
9438;SDS011;5176;42.622;25.386;2022-07-22T03:42:19;12.68;;;11.38;;
9438;SDS011;5176;42.622;25.386;2022-07-22T03:44:46;16.95;;;14.20;;
9438;SDS011;5176;42.622;25.386;2022-07-22T03:47:16;16.58;;;14.98;;
9438;SDS011;5176;42.622;25.386;2022-07-22T03:49:44;20.40;;;14.45;;
9438;SDS011;5176;42.622;25.386;2022-07-22T03:52:11;25.45;;;17.13;;
9438;SDS011;5176;42.622;25.386;2022-07-22T03:54:39;23.13;;;15.88;;
9438;SDS011;5176;42.622;25.386;2022-07-22T03:57:06;18.85;;;15.80;;
9438;SDS011;5176;42.622;25.386;2022-07-22T03:59:33;17.92;;;16.08;;
9438;SDS011;5176;42.622;25.386;2022-07-22T04:02:00;23.00;;;16.17;;
9438;SDS011;5176;42.622;25.386;2022-07-22T04:04:26;20.40;;;16.08;;
9438;SDS011;5176;42.622;25.386;2022-07-22T04:06:53;20.58;;;16.05;;
9438;SDS011;5176;42.622;25.386;2022-07-22T04:09:20;19.10;;;15.55;;
9438;SDS011;5176;42.622;25.386;2022-07-22T04:11:49;15.00;;;12.70;;
9438;SDS011;5176;42.622;25.386;2022-07-22T04:14:17;14.93;;;13.43;;
9438;SDS011;5176;42.622;25.386;2022-07-22T04:16:44;14.57;;;13.25;;
9438;SDS011;5176;42.622;25.386;2022-07-22T04:19:10;16.05;;;13.35;;
9438;SDS011;5176;42.622;25.386;2022-07-22T04:21:37;14.65;;;13.15;;
9438;SDS011;5176;42.622;25.386;2022-07-22T04:24:04;15.70;;;12.40;;
9438;SDS011;5176;42.622;25.386;2022-07-22T04:26:32;16.40;;;12.98;;
9438;SDS011;5176;42.622;25.386;2022-07-22T04:29:00;13.23;;;12.13;;
9438;SDS011;5176;42.622;25.386;2022-07-22T04:31:27;13.18;;;11.98;;
9438;SDS011;5176;42.622;25.386;2022-07-22T04:33:54;14.00;;;11.23;;
9438;SDS011;5176;42.622;25.386;2022-07-22T04:36:21;11.90;;;10.63;;
9438;SDS011;5176;42.622;25.386;2022-07-22T04:38:47;12.55;;;11.35;;
9438;SDS011;5176;42.622;25.386;2022-07-22T04:41:14;11.77;;;10.68;;
9438;SDS011;5176;42.622;25.386;2022-07-22T04:43:41;11.55;;;10.25;;
9438;SDS011;5176;42.622;25.386;2022-07-22T04:46:10;11.93;;;10.90;;
9438;SDS011;5176;42.622;25.386;2022-07-22T04:48:36;11.68;;;9.93;;
9438;SDS011;5176;42.622;25.386;2022-07-22T04:51:03;13.07;;;9.80;;
9438;SDS011;5176;42.622;25.386;2022-07-22T04:53:35;10.52;;;9.43;;
9438;SDS011;5176;42.622;25.386;2022-07-22T04:56:02;10.30;;;9.38;;
9438;SDS011;5176;42.622;25.386;2022-07-22T04:58:29;10.63;;;9.57;;
9438;SDS011;5176;42.622;25.386;2022-07-22T05:00:56;10.05;;;9.10;;
9438;SDS011;5176;42.622;25.386;2022-07-22T05:03:27;10.32;;;8.88;;
9438;SDS011;5176;42.622;25.386;2022-07-22T05:05:53;9.50;;;8.60;;
9438;SDS011;5176;42.622;25.386;2022-07-22T05:08:20;10.15;;;8.63;;
9438;SDS011;5176;42.622;25.386;2022-07-22T05:10:47;9.05;;;8.18;;
9438;SDS011;5176;42.622;25.386;2022-07-22T05:13:14;11.00;;;8.57;;
9438;SDS011;5176;42.622;25.386;2022-07-22T05:15:40;11.38;;;9.05;;
9438;SDS011;5176;42.622;25.386;2022-07-22T05:18:07;13.32;;;8.88;;
9438;SDS011;5176;42.622;25.386;2022-07-22T05:20:35;10.98;;;7.97;;
9438;SDS011;5176;42.622;25.386;2022-07-22T05:23:03;8.10;;;7.30;;
9438;SDS011;5176;42.622;25.386;2022-07-22T05:25:29;8.48;;;7.68;;
9438;SDS011;5176;42.622;25.386;2022-07-22T05:27:56;9.85;;;7.70;;
9438;SDS011;5176;42.622;25.386;2022-07-22T05:30:23;8.48;;;7.68;;
9438;SDS011;5176;42.622;25.386;2022-07-22T05:32:50;8.35;;;7.68;;
9438;SDS011;5176;42.622;25.386;2022-07-22T05:35:17;10.18;;;8.45;;
9438;SDS011;5176;42.622;25.386;2022-07-22T05:37:46;9.23;;;7.97;;
9438;SDS011;5176;42.622;25.386;2022-07-22T05:40:13;9.43;;;7.53;;
9438;SDS011;5176;42.622;25.386;2022-07-22T05:42:40;8.25;;;7.50;;
9438;SDS011;5176;42.622;25.386;2022-07-22T05:45:07;8.55;;;7.45;;
9438;SDS011;5176;42.622;25.386;2022-07-22T05:47:34;11.60;;;7.75;;
9438;SDS011;5176;42.622;25.386;2022-07-22T05:50:01;8.60;;;7.75;;
9438;SDS011;5176;42.622;25.386;2022-07-22T05:52:29;8.32;;;7.53;;
9438;SDS011;5176;42.622;25.386;2022-07-22T05:54:58;11.40;;;7.43;;
9438;SDS011;5176;42.622;25.386;2022-07-22T05:57:25;7.95;;;7.18;;
9438;SDS011;5176;42.622;25.386;2022-07-22T05:59:52;10.25;;;7.35;;
9438;SDS011;5176;42.622;25.386;2022-07-22T06:02:19;9.68;;;8.07;;
9438;SDS011;5176;42.622;25.386;2022-07-22T06:04:46;9.32;;;6.85;;
9438;SDS011;5176;42.622;25.386;2022-07-22T06:07:13;9.10;;;6.50;;
9438;SDS011;5176;42.622;25.386;2022-07-22T06:09:40;6.95;;;6.22;;
9438;SDS011;5176;42.622;25.386;2022-07-22T06:12:08;7.82;;;6.90;;
9438;SDS011;5176;42.622;25.386;2022-07-22T06:14:35;7.40;;;6.65;;
9438;SDS011;5176;42.622;25.386;2022-07-22T06:17:02;18.63;;;7.05;;
9438;SDS011;5176;42.622;25.386;2022-07-22T06:19:29;8.20;;;7.40;;
9438;SDS011;5176;42.622;25.386;2022-07-22T06:21:57;8.32;;;7.50;;
9438;SDS011;5176;42.622;25.386;2022-07-22T06:24:24;7.80;;;7.07;;
9438;SDS011;5176;42.622;25.386;2022-07-22T06:26:51;8.43;;;7.63;;
9438;SDS011;5176;42.622;25.386;2022-07-22T06:29:19;8.32;;;7.60;;
9438;SDS011;5176;42.622;25.386;2022-07-22T06:31:46;9.85;;;7.28;;
9438;SDS011;5176;42.622;25.386;2022-07-22T06:34:13;7.60;;;6.90;;
9438;SDS011;5176;42.622;25.386;2022-07-22T06:36:40;8.13;;;7.43;;
9438;SDS011;5176;42.622;25.386;2022-07-22T06:39:06;18.70;;;10.30;;
9438;SDS011;5176;42.622;25.386;2022-07-22T06:41:33;8.35;;;7.55;;
9438;SDS011;5176;42.622;25.386;2022-07-22T06:44:00;9.02;;;8.15;;
9438;SDS011;5176;42.622;25.386;2022-07-22T06:46:28;10.82;;;7.13;;
9438;SDS011;5176;42.622;25.386;2022-07-22T06:48:55;9.40;;;7.53;;
9438;SDS011;5176;42.622;25.386;2022-07-22T06:51:22;20.30;;;8.05;;
9438;SDS011;5176;42.622;25.386;2022-07-22T06:53:49;8.98;;;8.07;;
9438;SDS011;5176;42.622;25.386;2022-07-22T06:56:15;10.90;;;7.30;;
9438;SDS011;5176;42.622;25.386;2022-07-22T06:58:42;8.85;;;7.40;;
9438;SDS011;5176;42.622;25.386;2022-07-22T07:01:09;8.65;;;7.43;;
9438;SDS011;5176;42.622;25.386;2022-07-22T07:03:38;10.00;;;7.80;;
9438;SDS011;5176;42.622;25.386;2022-07-22T07:06:06;16.13;;;7.35;;
9438;SDS011;5176;42.622;25.386;2022-07-22T07:08:33;7.75;;;7.00;;
9438;SDS011;5176;42.622;25.386;2022-07-22T07:11:00;7.07;;;6.47;;
9438;SDS011;5176;42.622;25.386;2022-07-22T07:13:27;7.13;;;6.18;;
9438;SDS011;5176;42.622;25.386;2022-07-22T07:15:53;7.97;;;6.70;;
9438;SDS011;5176;42.622;25.386;2022-07-22T07:18:20;8.43;;;5.93;;
9438;SDS011;5176;42.622;25.386;2022-07-22T07:20:48;8.52;;;6.40;;
9438;SDS011;5176;42.622;25.386;2022-07-22T07:23:15;8.93;;;6.25;;
9438;SDS011;5176;42.622;25.386;2022-07-22T07:25:42;7.82;;;6.95;;
9438;SDS011;5176;42.622;25.386;2022-07-22T07:28:09;8.57;;;6.60;;
9438;SDS011;5176;42.622;25.386;2022-07-22T07:30:36;8.07;;;7.05;;
9438;SDS011;5176;42.622;25.386;2022-07-22T07:33:02;8.98;;;7.07;;
9438;SDS011;5176;42.622;25.386;2022-07-22T07:35:29;11.50;;;6.40;;
9438;SDS011;5176;42.622;25.386;2022-07-22T07:37:59;7.03;;;6.43;;
9438;SDS011;5176;42.622;25.386;2022-07-22T07:40:26;6.43;;;5.85;;
9438;SDS011;5176;42.622;25.386;2022-07-22T07:42:53;16.02;;;6.32;;
9438;SDS011;5176;42.622;25.386;2022-07-22T07:45:19;7.72;;;6.22;;
9438;SDS011;5176;42.622;25.386;2022-07-22T07:47:46;7.00;;;6.35;;
9438;SDS011;5176;42.622;25.386;2022-07-22T07:50:13;7.47;;;6.78;;
9438;SDS011;5176;42.622;25.386;2022-07-22T07:52:40;10.85;;;6.82;;
9438;SDS011;5176;42.622;25.386;2022-07-22T07:55:10;7.28;;;6.43;;
9438;SDS011;5176;42.622;25.386;2022-07-22T07:57:38;7.22;;;6.57;;
9438;SDS011;5176;42.622;25.386;2022-07-22T08:00:06;10.80;;;6.53;;
9438;SDS011;5176;42.622;25.386;2022-07-22T08:02:36;11.27;;;6.53;;
9438;SDS011;5176;42.622;25.386;2022-07-22T08:05:03;7.47;;;6.68;;
9438;SDS011;5176;42.622;25.386;2022-07-22T08:07:30;10.00;;;6.60;;
9438;SDS011;5176;42.622;25.386;2022-07-22T08:09:57;8.07;;;6.93;;
9438;SDS011;5176;42.622;25.386;2022-07-22T08:12:25;8.32;;;7.15;;
9438;SDS011;5176;42.622;25.386;2022-07-22T08:14:52;9.38;;;6.10;;
9438;SDS011;5176;42.622;25.386;2022-07-22T08:17:19;7.38;;;6.35;;
9438;SDS011;5176;42.622;25.386;2022-07-22T08:19:46;7.13;;;6.43;;
9438;SDS011;5176;42.622;25.386;2022-07-22T08:22:13;14.02;;;6.55;;
9438;SDS011;5176;42.622;25.386;2022-07-22T08:24:39;7.22;;;6.63;;
9438;SDS011;5176;42.622;25.386;2022-07-22T08:27:06;8.68;;;6.60;;
9438;SDS011;5176;42.622;25.386;2022-07-22T08:29:34;9.25;;;6.53;;
9438;SDS011;5176;42.622;25.386;2022-07-22T08:32:01;9.45;;;6.15;;
9438;SDS011;5176;42.622;25.386;2022-07-22T08:34:28;9.25;;;6.05;;
9438;SDS011;5176;42.622;25.386;2022-07-22T08:36:55;9.10;;;6.63;;
9438;SDS011;5176;42.622;25.386;2022-07-22T08:39:22;10.63;;;6.15;;
9438;SDS011;5176;42.622;25.386;2022-07-22T08:41:48;8.65;;;5.72;;
9438;SDS011;5176;42.622;25.386;2022-07-22T08:44:16;8.77;;;5.50;;
9438;SDS011;5176;42.622;25.386;2022-07-22T08:46:45;8.95;;;5.20;;
9438;SDS011;5176;42.622;25.386;2022-07-22T08:49:12;6.25;;;5.63;;
9438;SDS011;5176;42.622;25.386;2022-07-22T08:51:40;5.93;;;5.07;;
9438;SDS011;5176;42.622;25.386;2022-07-22T08:54:07;10.20;;;5.45;;
9438;SDS011;5176;42.622;25.386;2022-07-22T08:56:34;9.00;;;5.93;;
9438;SDS011;5176;42.622;25.386;2022-07-22T08:59:03;5.82;;;5.15;;
9438;SDS011;5176;42.622;25.386;2022-07-22T09:01:30;6.97;;;5.57;;
9438;SDS011;5176;42.622;25.386;2022-07-22T09:03:58;11.93;;;5.75;;
9438;SDS011;5176;42.622;25.386;2022-07-22T09:06:26;6.90;;;5.72;;
9438;SDS011;5176;42.622;25.386;2022-07-22T09:08:58;5.93;;;5.30;;
9438;SDS011;5176;42.622;25.386;2022-07-22T09:11:28;7.35;;;5.35;;
9438;SDS011;5176;42.622;25.386;2022-07-22T09:13:57;6.82;;;5.70;;
9438;SDS011;5176;42.622;25.386;2022-07-22T09:19:12;5.90;;;5.00;;
9438;SDS011;5176;42.622;25.386;2022-07-22T09:21:41;7.82;;;5.43;;
9438;SDS011;5176;42.622;25.386;2022-07-22T09:24:25;6.80;;;5.15;;
9438;SDS011;5176;42.622;25.386;2022-07-22T09:26:53;8.55;;;5.18;;
9438;SDS011;5176;42.622;25.386;2022-07-22T09:29:20;6.22;;;4.97;;
9438;SDS011;5176;42.622;25.386;2022-07-22T09:31:49;6.60;;;5.20;;
9438;SDS011;5176;42.622;25.386;2022-07-22T09:34:26;6.72;;;4.90;;
9438;SDS011;5176;42.622;25.386;2022-07-22T09:36:54;5.47;;;4.93;;
9438;SDS011;5176;42.622;25.386;2022-07-22T09:39:24;5.95;;;5.45;;
9438;SDS011;5176;42.622;25.386;2022-07-22T09:41:56;7.60;;;5.13;;
9438;SDS011;5176;42.622;25.386;2022-07-22T09:44:23;6.00;;;5.18;;
9438;SDS011;5176;42.622;25.386;2022-07-22T09:46:50;6.95;;;4.90;;
9438;SDS011;5176;42.622;25.386;2022-07-22T09:49:30;6.05;;;4.70;;
9438;SDS011;5176;42.622;25.386;2022-07-22T09:51:59;5.45;;;4.95;;
9438;SDS011;5176;42.622;25.386;2022-07-22T09:54:26;6.95;;;5.38;;
9438;SDS011;5176;42.622;25.386;2022-07-22T09:56:54;5.85;;;5.30;;
9438;SDS011;5176;42.622;25.386;2022-07-22T09:59:22;8.18;;;5.25;;
9438;SDS011;5176;42.622;25.386;2022-07-22T10:01:50;8.52;;;5.28;;
9438;SDS011;5176;42.622;25.386;2022-07-22T10:04:20;6.18;;;5.30;;
9438;SDS011;5176;42.622;25.386;2022-07-22T10:06:48;5.95;;;5.40;;
9438;SDS011;5176;42.622;25.386;2022-07-22T10:09:17;6.68;;;4.80;;
9438;SDS011;5176;42.622;25.386;2022-07-22T10:11:44;5.72;;;5.22;;
9438;SDS011;5176;42.622;25.386;2022-07-22T10:14:13;7.45;;;5.22;;
9438;SDS011;5176;42.622;25.386;2022-07-22T10:16:40;8.88;;;4.88;;
9438;SDS011;5176;42.622;25.386;2022-07-22T10:19:08;5.75;;;5.25;;
9438;SDS011;5176;42.622;25.386;2022-07-22T10:21:35;6.80;;;5.38;;
9438;SDS011;5176;42.622;25.386;2022-07-22T10:24:07;5.80;;;4.82;;
9438;SDS011;5176;42.622;25.386;2022-07-22T10:26:45;5.78;;;5.25;;
9438;SDS011;5176;42.622;25.386;2022-07-22T10:29:27;8.10;;;5.53;;
9438;SDS011;5176;42.622;25.386;2022-07-22T10:37:54;5.90;;;4.95;;
9438;SDS011;5176;42.622;25.386;2022-07-22T10:40:25;5.00;;;4.50;;
9438;SDS011;5176;42.622;25.386;2022-07-22T10:43:06;7.97;;;5.53;;
9438;SDS011;5176;42.622;25.386;2022-07-22T10:45:35;7.25;;;5.18;;
9438;SDS011;5176;42.622;25.386;2022-07-22T10:48:05;7.00;;;5.30;;
9438;SDS011;5176;42.622;25.386;2022-07-22T10:56:24;7.07;;;5.57;;
9438;SDS011;5176;42.622;25.386;2022-07-22T10:58:54;5.93;;;5.43;;
9438;SDS011;5176;42.622;25.386;2022-07-22T11:01:42;7.80;;;5.47;;
9438;SDS011;5176;42.622;25.386;2022-07-22T11:04:13;5.93;;;5.43;;
9438;SDS011;5176;42.622;25.386;2022-07-22T11:06:42;6.57;;;5.43;;
9438;SDS011;5176;42.622;25.386;2022-07-22T11:09:09;5.30;;;4.88;;
9438;SDS011;5176;42.622;25.386;2022-07-22T11:11:40;6.20;;;5.60;;
9438;SDS011;5176;42.622;25.386;2022-07-22T11:14:11;7.43;;;5.50;;
9438;SDS011;5176;42.622;25.386;2022-07-22T11:16:38;6.03;;;5.45;;
9438;SDS011;5176;42.622;25.386;2022-07-22T11:19:05;8.73;;;6.03;;
9438;SDS011;5176;42.622;25.386;2022-07-22T11:21:33;6.43;;;5.60;;
9438;SDS011;5176;42.622;25.386;2022-07-22T11:24:01;7.68;;;5.78;;
9438;SDS011;5176;42.622;25.386;2022-07-22T11:26:33;6.03;;;5.43;;
9438;SDS011;5176;42.622;25.386;2022-07-22T11:29:03;5.90;;;5.30;;
9438;SDS011;5176;42.622;25.386;2022-07-22T11:31:31;6.57;;;5.03;;
9438;SDS011;5176;42.622;25.386;2022-07-22T11:34:04;7.70;;;5.28;;
9438;SDS011;5176;42.622;25.386;2022-07-22T11:36:33;6.38;;;5.32;;
9438;SDS011;5176;42.622;25.386;2022-07-22T11:39:01;5.85;;;5.20;;
9438;SDS011;5176;42.622;25.386;2022-07-22T11:41:29;6.53;;;5.90;;
9438;SDS011;5176;42.622;25.386;2022-07-22T11:43:56;6.80;;;5.90;;
9438;SDS011;5176;42.622;25.386;2022-07-22T11:46:26;6.35;;;5.75;;
9438;SDS011;5176;42.622;25.386;2022-07-22T11:48:54;6.80;;;5.47;;
9438;SDS011;5176;42.622;25.386;2022-07-22T11:51:27;7.18;;;5.45;;
9438;SDS011;5176;42.622;25.386;2022-07-22T11:53:56;5.25;;;4.85;;
9438;SDS011;5176;42.622;25.386;2022-07-22T11:56:24;5.38;;;4.88;;
9438;SDS011;5176;42.622;25.386;2022-07-22T11:58:51;5.38;;;4.88;;
9438;SDS011;5176;42.622;25.386;2022-07-22T12:01:20;5.72;;;5.22;;
9438;SDS011;5176;42.622;25.386;2022-07-22T12:03:50;6.80;;;5.00;;
9438;SDS011;5176;42.622;25.386;2022-07-22T12:06:19;5.35;;;4.85;;
9438;SDS011;5176;42.622;25.386;2022-07-22T12:08:47;7.90;;;4.90;;
9438;SDS011;5176;42.622;25.386;2022-07-22T12:11:16;5.57;;;4.95;;
9438;SDS011;5176;42.622;25.386;2022-07-22T12:13:45;9.20;;;5.28;;
9438;SDS011;5176;42.622;25.386;2022-07-22T12:16:20;5.35;;;4.95;;
9438;SDS011;5176;42.622;25.386;2022-07-22T12:18:55;5.93;;;4.82;;
9438;SDS011;5176;42.622;25.386;2022-07-22T12:21:23;6.93;;;5.20;;
9438;SDS011;5176;42.622;25.386;2022-07-22T12:23:51;6.28;;;4.95;;
9438;SDS011;5176;42.622;25.386;2022-07-22T12:26:19;5.15;;;4.57;;
9438;SDS011;5176;42.622;25.386;2022-07-22T12:29:15;8.02;;;4.93;;
9438;SDS011;5176;42.622;25.386;2022-07-22T12:31:50;5.45;;;4.43;;
9438;SDS011;5176;42.622;25.386;2022-07-22T12:34:29;5.57;;;4.25;;
9438;SDS011;5176;42.622;25.386;2022-07-22T12:37:01;6.72;;;4.75;;
9438;SDS011;5176;42.622;25.386;2022-07-22T12:39:38;7.00;;;4.43;;
9438;SDS011;5176;42.622;25.386;2022-07-22T12:42:15;12.23;;;4.75;;
9438;SDS011;5176;42.622;25.386;2022-07-22T12:44:49;5.18;;;4.70;;
9438;SDS011;5176;42.622;25.386;2022-07-22T12:47:17;4.57;;;4.13;;
9438;SDS011;5176;42.622;25.386;2022-07-22T12:50:16;6.50;;;4.85;;
9438;SDS011;5176;42.622;25.386;2022-07-22T12:52:44;8.45;;;4.28;;
9438;SDS011;5176;42.622;25.386;2022-07-22T12:55:11;8.23;;;4.70;;
9438;SDS011;5176;42.622;25.386;2022-07-22T12:57:38;7.30;;;4.43;;
9438;SDS011;5176;42.622;25.386;2022-07-22T13:00:05;5.70;;;4.10;;
9438;SDS011;5176;42.622;25.386;2022-07-22T13:02:33;4.78;;;4.30;;
9438;SDS011;5176;42.622;25.386;2022-07-22T13:05:00;4.90;;;4.35;;
9438;SDS011;5176;42.622;25.386;2022-07-22T13:07:28;6.55;;;4.30;;
9438;SDS011;5176;42.622;25.386;2022-07-22T13:09:55;7.03;;;4.82;;
9438;SDS011;5176;42.622;25.386;2022-07-22T13:12:22;6.75;;;4.25;;
9438;SDS011;5176;42.622;25.386;2022-07-22T13:14:49;6.30;;;4.30;;
9438;SDS011;5176;42.622;25.386;2022-07-22T13:17:16;5.32;;;4.63;;
9438;SDS011;5176;42.622;25.386;2022-07-22T13:19:44;6.53;;;4.50;;
9438;SDS011;5176;42.622;25.386;2022-07-22T13:22:11;5.10;;;4.40;;
9438;SDS011;5176;42.622;25.386;2022-07-22T13:24:39;5.40;;;4.40;;
9438;SDS011;5176;42.622;25.386;2022-07-22T13:27:06;4.82;;;4.38;;
9438;SDS011;5176;42.622;25.386;2022-07-22T13:29:33;5.68;;;4.57;;
9438;SDS011;5176;42.622;25.386;2022-07-22T13:32:00;5.60;;;5.10;;
9438;SDS011;5176;42.622;25.386;2022-07-22T13:34:26;6.82;;;4.50;;
9438;SDS011;5176;42.622;25.386;2022-07-22T13:36:53;7.68;;;5.15;;
9438;SDS011;5176;42.622;25.386;2022-07-22T13:39:29;5.47;;;4.78;;
9438;SDS011;5176;42.622;25.386;2022-07-22T13:41:57;7.85;;;4.75;;
9438;SDS011;5176;42.622;25.386;2022-07-22T13:44:25;6.60;;;4.63;;
9438;SDS011;5176;42.622;25.386;2022-07-22T13:46:51;6.68;;;4.95;;
9438;SDS011;5176;42.622;25.386;2022-07-22T13:49:18;5.72;;;4.93;;
9438;SDS011;5176;42.622;25.386;2022-07-22T13:51:46;5.97;;;4.55;;
9438;SDS011;5176;42.622;25.386;2022-07-22T13:54:13;4.65;;;4.25;;
9438;SDS011;5176;42.622;25.386;2022-07-22T13:56:40;6.60;;;4.60;;
9438;SDS011;5176;42.622;25.386;2022-07-22T13:59:10;4.75;;;4.25;;
9438;SDS011;5176;42.622;25.386;2022-07-22T14:01:37;6.65;;;4.53;;
9438;SDS011;5176;42.622;25.386;2022-07-22T14:04:04;6.20;;;4.38;;
9438;SDS011;5176;42.622;25.386;2022-07-22T14:06:31;4.72;;;4.32;;
9438;SDS011;5176;42.622;25.386;2022-07-22T14:08:58;7.47;;;4.28;;
9438;SDS011;5176;42.622;25.386;2022-07-22T14:11:25;5.95;;;4.40;;
9438;SDS011;5176;42.622;25.386;2022-07-22T14:13:52;6.13;;;3.75;;
9438;SDS011;5176;42.622;25.386;2022-07-22T14:16:20;4.85;;;4.35;;
9438;SDS011;5176;42.622;25.386;2022-07-22T14:19:03;8.45;;;4.88;;
9438;SDS011;5176;42.622;25.386;2022-07-22T14:21:32;4.85;;;4.15;;
9438;SDS011;5176;42.622;25.386;2022-07-22T14:23:59;6.07;;;3.97;;
9438;SDS011;5176;42.622;25.386;2022-07-22T14:26:27;5.72;;;4.18;;
9438;SDS011;5176;42.622;25.386;2022-07-22T14:28:54;4.90;;;4.40;;
9438;SDS011;5176;42.622;25.386;2022-07-22T14:31:22;6.60;;;4.20;;
9438;SDS011;5176;42.622;25.386;2022-07-22T14:33:49;5.68;;;3.95;;
9438;SDS011;5176;42.622;25.386;2022-07-22T14:36:16;4.65;;;3.58;;
9438;SDS011;5176;42.622;25.386;2022-07-22T14:38:43;6.80;;;4.40;;
9438;SDS011;5176;42.622;25.386;2022-07-22T14:41:10;5.10;;;3.70;;
9438;SDS011;5176;42.622;25.386;2022-07-22T14:43:37;4.28;;;3.70;;
9438;SDS011;5176;42.622;25.386;2022-07-22T14:46:04;4.70;;;3.55;;
9438;SDS011;5176;42.622;25.386;2022-07-22T14:48:34;5.22;;;3.95;;
9438;SDS011;5176;42.622;25.386;2022-07-22T14:51:02;3.83;;;3.53;;
9438;SDS011;5176;42.622;25.386;2022-07-22T14:53:29;6.63;;;3.83;;
9438;SDS011;5176;42.622;25.386;2022-07-22T14:55:57;5.10;;;3.78;;
9438;SDS011;5176;42.622;25.386;2022-07-22T14:58:24;6.95;;;4.10;;
9438;SDS011;5176;42.622;25.386;2022-07-22T15:00:51;7.10;;;3.20;;
9438;SDS011;5176;42.622;25.386;2022-07-22T15:03:18;4.15;;;3.50;;
9438;SDS011;5176;42.622;25.386;2022-07-22T15:05:46;5.70;;;3.28;;
9438;SDS011;5176;42.622;25.386;2022-07-22T15:08:13;4.43;;;3.78;;
9438;SDS011;5176;42.622;25.386;2022-07-22T15:10:39;5.07;;;3.63;;
9438;SDS011;5176;42.622;25.386;2022-07-22T15:13:06;3.80;;;3.50;;